Time;durP1;ratioP1;P1;durP2;ratioP2;P2;SDS_P1;SDS_P2;PMS_P1;PMS_P2;Temp;Humidity;BMP_temperature;BMP_pressure;BME280_temperature;BME280_humidity;BME280_pressure;Samples;Min_cycle;Max_cycle;Signal;HPM_P1;HPM_P2
2021/12/20 00:01:50;;;;;;;19.92;9.48;;;;;;;;;;5064485;28;20021;-51
2021/12/20 00:04:16;;;;;;;21.25;10.07;;;;;;;;;;5065126;28;20035;-49
2021/12/20 00:06:42;;;;;;;20.85;10.50;;;;;;;;;;5064486;28;20021;-51
2021/12/20 00:09:09;;;;;;;19.90;10.07;;;;;;;;;;5060354;28;20036;-48
2021/12/20 00:11:35;;;;;;;19.13;9.43;;;;;;;;;;5059641;28;20024;-52
2021/12/20 00:14:01;;;;;;;20.50;9.00;;;;;;;;;;5063586;28;20032;-51
2021/12/20 00:16:28;;;;;;;20.23;9.25;;;;;;;;;;5064675;28;20024;-51
2021/12/20 00:18:54;;;;;;;18.65;8.35;;;;;;;;;;5063183;28;20500;-48
2021/12/20 00:21:21;;;;;;;20.58;9.20;;;;;;;;;;5063715;28;20587;-50
2021/12/20 00:23:47;;;;;;;24.30;10.25;;;;;;;;;;5065144;28;20024;-51
2021/12/20 00:26:14;;;;;;;26.40;10.52;;;;;;;;;;5064779;28;20032;-49
2021/12/20 00:28:41;;;;;;;22.42;9.07;;;;;;;;;;5063002;28;20467;-51
2021/12/20 00:31:08;;;;;;;19.98;9.38;;;;;;;;;;5063073;28;20029;-49
2021/12/20 00:33:35;;;;;;;20.02;9.20;;;;;;;;;;5064275;28;20416;-48
2021/12/20 00:36:04;;;;;;;19.58;8.73;;;;;;;;;;5061862;28;20020;-50
2021/12/20 00:41:15;;;;;;;21.25;9.20;;;;;;;;;;5064819;28;20550;-51
2021/12/20 00:43:41;;;;;;;23.27;10.00;;;;;;;;;;5064529;28;20063;-50
2021/12/20 00:46:07;;;;;;;24.67;9.88;;;;;;;;;;5055106;28;20108;-49
2021/12/20 00:48:33;;;;;;;24.55;10.48;;;;;;;;;;5062682;28;20131;-52
2021/12/20 00:51:00;;;;;;;35.92;13.98;;;;;;;;;;5064061;28;20066;-50
2021/12/20 00:53:26;;;;;;;45.65;16.05;;;;;;;;;;5064699;28;20021;-51
2021/12/20 00:55:52;;;;;;;42.85;15.10;;;;;;;;;;5064855;28;20468;-49
2021/12/20 00:58:18;;;;;;;37.97;13.77;;;;;;;;;;5063000;28;20036;-51
2021/12/20 01:00:47;;;;;;;30.42;11.90;;;;;;;;;;5065074;28;20063;-48
2021/12/20 01:03:13;;;;;;;25.25;10.40;;;;;;;;;;5063464;28;20086;-50
2021/12/20 01:05:39;;;;;;;26.45;10.60;;;;;;;;;;5064265;28;20032;-48
2021/12/20 01:08:07;;;;;;;24.15;9.70;;;;;;;;;;5062242;28;20043;-49
2021/12/20 01:10:35;;;;;;;21.77;9.73;;;;;;;;;;5064410;28;20036;-49
2021/12/20 01:13:02;;;;;;;24.20;9.73;;;;;;;;;;5064158;28;20107;-53
2021/12/20 01:15:32;;;;;;;26.52;11.15;;;;;;;;;;5065873;28;20024;-52
2021/12/20 01:17:58;;;;;;;36.95;12.15;;;;;;;;;;5064498;28;20139;-51
2021/12/20 01:20:25;;;;;;;41.78;14.80;;;;;;;;;;5065570;28;20038;-51
2021/12/20 01:22:51;;;;;;;46.20;16.17;;;;;;;;;;5065842;28;20032;-49
2021/12/20 01:25:18;;;;;;;38.25;13.07;;;;;;;;;;5065403;28;20024;-51
2021/12/20 01:27:45;;;;;;;37.47;13.57;;;;;;;;;;5065155;28;20044;-52
2021/12/20 01:30:12;;;;;;;31.98;12.07;;;;;;;;;;5065192;28;20020;-51
2021/12/20 01:32:39;;;;;;;30.10;11.95;;;;;;;;;;5065874;28;20028;-51
2021/12/20 01:35:05;;;;;;;24.05;10.85;;;;;;;;;;5065493;28;20081;-49
2021/12/20 01:37:31;;;;;;;28.92;11.00;;;;;;;;;;5064111;28;20028;-48
2021/12/20 01:39:59;;;;;;;23.83;9.75;;;;;;;;;;5046298;28;20025;-51
2021/12/20 01:42:26;;;;;;;23.30;10.13;;;;;;;;;;5065472;28;20035;-50
2021/12/20 01:44:56;;;;;;;23.30;10.23;;;;;;;;;;5064804;28;20459;-52
2021/12/20 01:47:23;;;;;;;21.55;9.98;;;;;;;;;;5063811;28;20029;-51
2021/12/20 01:50:02;;;;;;;21.70;9.98;;;;;;;;;;5065541;28;20867;-50
2021/12/20 01:52:39;;;;;;;21.10;9.00;;;;;;;;;;5065887;28;20020;-51
2021/12/20 01:55:06;;;;;;;19.65;9.18;;;;;;;;;;5065089;28;20535;-51
2021/12/20 01:57:32;;;;;;;18.50;8.88;;;;;;;;;;5064088;28;20376;-47
2021/12/20 01:59:58;;;;;;;23.63;9.93;;;;;;;;;;5064444;28;20036;-49
2021/12/20 02:02:24;;;;;;;18.08;7.90;;;;;;;;;;5063762;28;20079;-51
2021/12/20 02:04:52;;;;;;;19.83;8.00;;;;;;;;;;5065547;28;20036;-51
2021/12/20 02:07:48;;;;;;;18.25;9.25;;;;;;;;;;5065075;28;20028;-49
2021/12/20 02:10:14;;;;;;;22.50;9.63;;;;;;;;;;5065920;28;20074;-50
2021/12/20 02:12:40;;;;;;;17.23;8.10;;;;;;;;;;5065557;28;20032;-52
2021/12/20 02:15:07;;;;;;;18.48;8.38;;;;;;;;;;5065346;28;20093;-50
2021/12/20 02:17:33;;;;;;;18.63;8.85;;;;;;;;;;5064636;28;20420;-48
2021/12/20 02:20:03;;;;;;;20.90;9.70;;;;;;;;;;5067005;28;20025;-47
2021/12/20 02:22:29;;;;;;;19.23;8.65;;;;;;;;;;5050792;28;20438;-47
2021/12/20 02:24:55;;;;;;;17.75;8.55;;;;;;;;;;5069097;28;20103;-49
2021/12/20 02:27:23;;;;;;;18.58;8.13;;;;;;;;;;5067980;28;20047;-50
2021/12/20 02:38:21;;;;;;;15.85;7.15;;;;;;;;;;5068664;28;20094;-51
2021/12/20 02:40:47;;;;;;;18.80;8.80;;;;;;;;;;5069217;28;20549;-48
2021/12/20 02:43:17;;;;;;;17.15;8.80;;;;;;;;;;5067293;28;20036;-50
2021/12/20 02:45:44;;;;;;;16.80;7.15;;;;;;;;;;5068853;28;20032;-50
2021/12/20 02:48:10;;;;;;;19.45;8.27;;;;;;;;;;5068082;28;20028;-50
2021/12/20 02:50:36;;;;;;;16.50;7.32;;;;;;;;;;5068641;28;20031;-51
2021/12/20 02:53:02;;;;;;;16.33;7.75;;;;;;;;;;5066598;28;20479;-51
2021/12/20 02:55:28;;;;;;;17.15;8.07;;;;;;;;;;5067675;28;20123;-48
2021/12/20 02:57:54;;;;;;;15.82;7.40;;;;;;;;;;5068473;28;20028;-49
2021/12/20 03:00:20;;;;;;;16.08;7.38;;;;;;;;;;5068153;28;20871;-49
2021/12/20 03:02:47;;;;;;;14.60;6.63;;;;;;;;;;5065273;28;20115;-48
2021/12/20 03:05:13;;;;;;;14.20;6.75;;;;;;;;;;5068031;28;20133;-48
2021/12/20 03:07:48;;;;;;;15.02;7.47;;;;;;;;;;5068239;28;20017;-50
2021/12/20 03:10:15;;;;;;;16.13;6.97;;;;;;;;;;5066712;28;20109;-50
2021/12/20 03:12:41;;;;;;;18.45;8.55;;;;;;;;;;5066880;28;20089;-47
2021/12/20 03:15:15;;;;;;;16.98;8.05;;;;;;;;;;5067996;28;20048;-51
2021/12/20 03:17:42;;;;;;;15.95;7.25;;;;;;;;;;5068077;28;20392;-48
2021/12/20 03:20:08;;;;;;;15.35;7.35;;;;;;;;;;5067793;28;21004;-48
2021/12/20 03:22:34;;;;;;;16.80;7.65;;;;;;;;;;5066171;28;20020;-51
2021/12/20 03:25:00;;;;;;;15.95;7.18;;;;;;;;;;5068051;28;20067;-51
2021/12/20 03:27:26;;;;;;;14.77;7.40;;;;;;;;;;5067951;28;20441;-49
2021/12/20 03:29:52;;;;;;;15.93;7.50;;;;;;;;;;5067446;28;20021;-50
2021/12/20 03:32:18;;;;;;;16.30;7.82;;;;;;;;;;5065886;28;20514;-51
2021/12/20 03:34:45;;;;;;;15.02;8.30;;;;;;;;;;5067969;28;20080;-49
2021/12/20 03:37:11;;;;;;;17.77;9.15;;;;;;;;;;5067429;28;20037;-51
2021/12/20 03:39:37;;;;;;;16.85;8.48;;;;;;;;;;5067766;28;20075;-50
2021/12/20 03:42:03;;;;;;;17.98;8.30;;;;;;;;;;5067402;28;20028;-51
2021/12/20 03:44:36;;;;;;;14.75;7.40;;;;;;;;;;5065710;28;20028;-49
2021/12/20 03:47:03;;;;;;;14.60;6.90;;;;;;;;;;5067443;28;20035;-49
2021/12/20 03:49:29;;;;;;;15.75;8.00;;;;;;;;;;5065490;28;20032;-49
2021/12/20 03:51:55;;;;;;;18.08;9.27;;;;;;;;;;5067156;28;20024;-49
2021/12/20 03:54:21;;;;;;;15.48;8.57;;;;;;;;;;5063916;28;20153;-50
2021/12/20 03:56:47;;;;;;;16.42;8.55;;;;;;;;;;5067846;28;20107;-50
2021/12/20 03:59:13;;;;;;;15.55;7.90;;;;;;;;;;5067047;28;20052;-51
2021/12/20 04:01:39;;;;;;;14.52;7.43;;;;;;;;;;5067125;28;20562;-48
2021/12/20 04:04:05;;;;;;;15.82;6.93;;;;;;;;;;5065080;28;20032;-49
2021/12/20 04:06:34;;;;;;;14.38;6.60;;;;;;;;;;5067338;28;20029;-49
2021/12/20 04:09:00;;;;;;;13.15;6.93;;;;;;;;;;5067206;28;20028;-48
2021/12/20 04:11:26;;;;;;;11.30;6.00;;;;;;;;;;5066947;28;20025;-51
2021/12/20 04:13:52;;;;;;;14.55;7.05;;;;;;;;;;5063332;28;20017;-51
2021/12/20 04:16:18;;;;;;;13.75;6.35;;;;;;;;;;5066635;28;20022;-52
2021/12/20 04:18:45;;;;;;;13.32;6.65;;;;;;;;;;5067378;28;20028;-50
2021/12/20 04:21:13;;;;;;;12.93;6.55;;;;;;;;;;5066660;28;20053;-50
2021/12/20 04:23:39;;;;;;;13.20;6.50;;;;;;;;;;5065550;28;20115;-49
2021/12/20 04:26:05;;;;;;;14.65;6.40;;;;;;;;;;5066913;28;20025;-50
2021/12/20 04:28:31;;;;;;;11.70;5.32;;;;;;;;;;5066423;28;20025;-50
2021/12/20 04:30:57;;;;;;;12.68;6.38;;;;;;;;;;5066203;28;20711;-50
2021/12/20 04:33:23;;;;;;;12.90;6.07;;;;;;;;;;5062750;28;20028;-51
2021/12/20 04:35:49;;;;;;;12.07;6.20;;;;;;;;;;5066605;28;20020;-52
2021/12/20 04:38:16;;;;;;;12.63;6.88;;;;;;;;;;5067008;28;20526;-52
2021/12/20 04:40:42;;;;;;;14.65;6.68;;;;;;;;;;5066516;28;20028;-52
2021/12/20 04:43:08;;;;;;;13.75;7.13;;;;;;;;;;5064484;28;20106;-49
2021/12/20 04:45:35;;;;;;;14.73;6.60;;;;;;;;;;5066146;28;20032;-50
2021/12/20 04:48:01;;;;;;;15.40;7.22;;;;;;;;;;5064871;28;20703;-52
2021/12/20 04:50:28;;;;;;;15.07;6.75;;;;;;;;;;5064447;28;20029;-51
2021/12/20 04:52:55;;;;;;;13.68;6.53;;;;;;;;;;5064497;28;20017;-51
2021/12/20 04:55:23;;;;;;;13.73;6.38;;;;;;;;;;5066222;28;20025;-52
2021/12/20 04:57:49;;;;;;;13.90;6.97;;;;;;;;;;5066265;28;20149;-50
2021/12/20 05:00:18;;;;;;;16.85;7.88;;;;;;;;;;5066676;28;20708;-51
2021/12/20 05:02:46;;;;;;;14.95;6.30;;;;;;;;;;5066119;28;20099;-50
2021/12/20 05:05:12;;;;;;;15.25;6.88;;;;;;;;;;5064448;28;20032;-53
2021/12/20 05:07:39;;;;;;;13.75;6.93;;;;;;;;;;5066364;28;20047;-52
2021/12/20 05:10:08;;;;;;;18.23;8.13;;;;;;;;;;5066356;28;20024;-50
2021/12/20 05:12:34;;;;;;;14.73;6.60;;;;;;;;;;5065905;28;20043;-52
2021/12/20 05:15:00;;;;;;;16.05;7.15;;;;;;;;;;5061686;28;20526;-50
2021/12/20 05:17:27;;;;;;;14.07;6.60;;;;;;;;;;5064950;28;20415;-52
2021/12/20 05:19:53;;;;;;;14.13;6.85;;;;;;;;;;5064313;28;20025;-49
2021/12/20 05:22:19;;;;;;;12.15;5.85;;;;;;;;;;5065971;28;20021;-52
2021/12/20 05:24:45;;;;;;;15.68;7.47;;;;;;;;;;5062274;28;20025;-52
2021/12/20 05:27:11;;;;;;;15.38;6.80;;;;;;;;;;5065877;28;20967;-49
2021/12/20 05:29:37;;;;;;;14.82;6.55;;;;;;;;;;5065039;28;20369;-52
2021/12/20 05:32:05;;;;;;;16.85;7.43;;;;;;;;;;5063250;28;20063;-49
2021/12/20 05:34:31;;;;;;;12.98;6.38;;;;;;;;;;5063798;28;20031;-53
2021/12/20 05:36:57;;;;;;;14.95;6.97;;;;;;;;;;5065870;28;20056;-53
2021/12/20 05:39:23;;;;;;;14.15;6.55;;;;;;;;;;5066042;28;20445;-49
2021/12/20 05:41:49;;;;;;;14.90;6.85;;;;;;;;;;5065378;28;20027;-52
2021/12/20 05:44:15;;;;;;;15.45;7.30;;;;;;;;;;5063256;28;20373;-50
2021/12/20 05:46:41;;;;;;;15.48;7.10;;;;;;;;;;5065461;28;20133;-53
2021/12/20 05:49:08;;;;;;;16.88;7.78;;;;;;;;;;5065530;28;20036;-52
2021/12/20 05:51:35;;;;;;;21.52;9.20;;;;;;;;;;5065026;28;20040;-49
2021/12/20 05:54:01;;;;;;;23.40;10.00;;;;;;;;;;5064029;28;20062;-51
2021/12/20 05:56:27;;;;;;;27.02;12.13;;;;;;;;;;5069252;28;20622;-50
2021/12/20 05:58:53;;;;;;;23.02;10.25;;;;;;;;;;5069885;28;20099;-52
2021/12/20 06:01:19;;;;;;;21.48;9.80;;;;;;;;;;5068806;28;20496;-52
2021/12/20 06:03:45;;;;;;;21.13;9.30;;;;;;;;;;5067672;28;20028;-49
2021/12/20 06:06:12;;;;;;;20.88;9.38;;;;;;;;;;5069360;28;20940;-51
2021/12/20 06:08:38;;;;;;;19.35;8.02;;;;;;;;;;5067937;28;20416;-52
2021/12/20 06:11:04;;;;;;;20.52;9.05;;;;;;;;;;5067213;28;20392;-51
2021/12/20 06:13:30;;;;;;;18.17;8.63;;;;;;;;;;5067606;28;20059;-50
2021/12/20 06:15:56;;;;;;;17.52;9.00;;;;;;;;;;5068800;28;20064;-49
2021/12/20 06:18:22;;;;;;;20.85;9.93;;;;;;;;;;5067695;28;20024;-50
2021/12/20 06:20:48;;;;;;;20.60;9.38;;;;;;;;;;5068884;28;20483;-52
2021/12/20 06:23:15;;;;;;;17.33;9.10;;;;;;;;;;5066742;28;20031;-49
2021/12/20 06:25:41;;;;;;;17.20;8.65;;;;;;;;;;5068825;28;20410;-49
2021/12/20 06:28:07;;;;;;;16.63;7.95;;;;;;;;;;5067617;28;20028;-52
2021/12/20 06:30:33;;;;;;;17.08;8.32;;;;;;;;;;5063811;28;20510;-51
2021/12/20 06:32:59;;;;;;;16.75;7.28;;;;;;;;;;5067747;28;20630;-51
2021/12/20 06:35:25;;;;;;;16.73;7.28;;;;;;;;;;5068571;28;20396;-51
2021/12/20 06:38:00;;;;;;;16.15;7.47;;;;;;;;;;5069090;28;20531;-52
2021/12/20 06:40:26;;;;;;;17.05;7.00;;;;;;;;;;5068192;28;20028;-51
2021/12/20 06:42:52;;;;;;;13.90;7.15;;;;;;;;;;5065748;28;20111;-52
2021/12/20 06:45:18;;;;;;;17.58;7.63;;;;;;;;;;5066190;28;20033;-49
2021/12/20 06:47:45;;;;;;;16.58;7.60;;;;;;;;;;5068291;28;20043;-52
2021/12/20 06:50:11;;;;;;;17.40;8.48;;;;;;;;;;5068256;28;20039;-51
2021/12/20 06:52:37;;;;;;;15.32;7.40;;;;;;;;;;5067867;28;20499;-49
2021/12/20 06:55:03;;;;;;;17.40;7.63;;;;;;;;;;5066397;28;20035;-50
2021/12/20 06:57:29;;;;;;;18.25;7.97;;;;;;;;;;5066344;28;20096;-52
2021/12/20 06:59:56;;;;;;;15.48;7.38;;;;;;;;;;5068269;28;20498;-49
2021/12/20 07:02:23;;;;;;;15.65;7.63;;;;;;;;;;5068021;28;20034;-52
2021/12/20 07:04:49;;;;;;;17.30;7.93;;;;;;;;;;5066099;28;20020;-52
2021/12/20 07:07:15;;;;;;;17.27;8.10;;;;;;;;;;5067855;28;20027;-49
2021/12/20 07:09:41;;;;;;;20.08;7.95;;;;;;;;;;5066124;28;20036;-51
2021/12/20 07:12:08;;;;;;;18.65;7.85;;;;;;;;;;5068205;28;20776;-50
2021/12/20 07:14:34;;;;;;;17.95;7.70;;;;;;;;;;5067959;28;20416;-52
2021/12/20 07:17:00;;;;;;;14.35;6.78;;;;;;;;;;5068002;28;20070;-52
2021/12/20 07:19:26;;;;;;;15.18;6.85;;;;;;;;;;5066679;28;20391;-49
2021/12/20 07:21:52;;;;;;;15.40;7.50;;;;;;;;;;5066714;28;20407;-52
2021/12/20 07:24:18;;;;;;;14.88;6.78;;;;;;;;;;5067893;28;20497;-53
2021/12/20 07:26:44;;;;;;;13.20;6.38;;;;;;;;;;5067209;28;20017;-50
2021/12/20 07:29:11;;;;;;;13.90;6.70;;;;;;;;;;5065834;28;20094;-51
2021/12/20 07:31:37;;;;;;;16.40;6.70;;;;;;;;;;5067537;28;20017;-50
2021/12/20 07:34:04;;;;;;;14.95;6.95;;;;;;;;;;5068101;28;20024;-53
2021/12/20 07:36:30;;;;;;;16.08;7.53;;;;;;;;;;5067350;28;20013;-51
2021/12/20 07:38:56;;;;;;;16.05;7.80;;;;;;;;;;5065907;28;20114;-52
2021/12/20 07:41:23;;;;;;;19.25;8.43;;;;;;;;;;5067136;28;20048;-51
2021/12/20 07:43:50;;;;;;;14.90;7.28;;;;;;;;;;5067415;28;20046;-52
2021/12/20 07:46:17;;;;;;;18.08;8.50;;;;;;;;;;5066811;28;20412;-49
2021/12/20 07:48:44;;;;;;;14.32;7.25;;;;;;;;;;5066463;28;20526;-51
2021/12/20 07:51:10;;;;;;;15.02;7.80;;;;;;;;;;5067413;28;20021;-49
2021/12/20 07:53:36;;;;;;;14.02;7.45;;;;;;;;;;5064107;28;20115;-53
2021/12/20 07:56:02;;;;;;;12.43;6.63;;;;;;;;;;5065218;28;20024;-52
2021/12/20 07:58:28;;;;;;;14.57;7.20;;;;;;;;;;5066122;28;20056;-50
2021/12/20 08:00:55;;;;;;;14.48;6.72;;;;;;;;;;5061872;28;20395;-52
2021/12/20 08:03:21;;;;;;;13.68;6.38;;;;;;;;;;5067188;28;20025;-50
2021/12/20 08:05:47;;;;;;;14.63;7.32;;;;;;;;;;5067186;28;20024;-51
2021/12/20 08:08:13;;;;;;;12.68;6.25;;;;;;;;;;5064664;28;20067;-50
2021/12/20 08:10:39;;;;;;;13.02;6.55;;;;;;;;;;5065123;28;20016;-51
2021/12/20 08:13:06;;;;;;;12.00;6.00;;;;;;;;;;5071215;28;20024;-50
2021/12/20 08:15:32;;;;;;;13.35;6.07;;;;;;;;;;5070652;28;20048;-50
2021/12/20 08:17:58;;;;;;;14.32;6.45;;;;;;;;;;5061781;28;20545;-52
2021/12/20 08:20:24;;;;;;;11.88;6.40;;;;;;;;;;5066312;28;20052;-51
2021/12/20 08:22:50;;;;;;;12.02;6.28;;;;;;;;;;5066625;28;20028;-53
2021/12/20 08:25:18;;;;;;;10.73;5.93;;;;;;;;;;5065461;28;20107;-51
2021/12/20 08:27:44;;;;;;;13.40;6.20;;;;;;;;;;5066228;28;20115;-52
2021/12/20 08:30:11;;;;;;;10.48;5.20;;;;;;;;;;5064613;28;20025;-52
2021/12/20 08:32:37;;;;;;;11.20;5.80;;;;;;;;;;5067006;28;20037;-50
2021/12/20 08:35:04;;;;;;;12.07;6.28;;;;;;;;;;5064995;28;20036;-52
2021/12/20 08:37:30;;;;;;;11.60;5.75;;;;;;;;;;5066023;28;20095;-53
2021/12/20 08:39:56;;;;;;;13.38;6.18;;;;;;;;;;5064324;28;20056;-53
2021/12/20 08:42:22;;;;;;;10.10;5.35;;;;;;;;;;5064538;28;20047;-49
2021/12/20 08:44:48;;;;;;;10.10;5.53;;;;;;;;;;5065932;28;20103;-50
2021/12/20 08:47:15;;;;;;;10.57;5.53;;;;;;;;;;5066307;28;20056;-53
2021/12/20 08:49:41;;;;;;;13.20;6.38;;;;;;;;;;5064896;28;20556;-53
2021/12/20 08:52:07;;;;;;;11.48;6.10;;;;;;;;;;5063323;28;20091;-53
2021/12/20 08:54:33;;;;;;;12.82;5.93;;;;;;;;;;5064707;28;20186;-53
2021/12/20 08:56:59;;;;;;;13.18;6.82;;;;;;;;;;5066261;28;20036;-52
2021/12/20 08:59:25;;;;;;;13.75;6.68;;;;;;;;;;5065538;28;20043;-50
2021/12/20 09:01:51;;;;;;;12.23;6.93;;;;;;;;;;5059294;28;20036;-52
2021/12/20 09:04:18;;;;;;;11.70;6.25;;;;;;;;;;5068882;28;20080;-52
2021/12/20 09:06:45;;;;;;;13.98;7.05;;;;;;;;;;5069113;28;20076;-52
2021/12/20 09:09:13;;;;;;;12.10;6.35;;;;;;;;;;5066265;28;20082;-50
2021/12/20 09:11:39;;;;;;;12.15;6.15;;;;;;;;;;5066339;28;20029;-52
2021/12/20 09:14:06;;;;;;;12.70;6.40;;;;;;;;;;5066493;28;20023;-52
2021/12/20 09:16:32;;;;;;;11.30;5.90;;;;;;;;;;5065747;28;20029;-51
2021/12/20 09:18:58;;;;;;;11.68;6.03;;;;;;;;;;5063480;28;20455;-50
2021/12/20 09:21:24;;;;;;;10.85;6.13;;;;;;;;;;5064852;28;20571;-53
2021/12/20 09:23:50;;;;;;;12.10;6.82;;;;;;;;;;5064613;28;20021;-52
2021/12/20 09:26:17;;;;;;;13.20;7.20;;;;;;;;;;5048890;28;20488;-53
2021/12/20 09:28:43;;;;;;;11.65;6.85;;;;;;;;;;5066505;28;20403;-49
2021/12/20 09:31:09;;;;;;;14.68;8.10;;;;;;;;;;5068825;28;20025;-53
2021/12/20 09:33:35;;;;;;;16.20;8.40;;;;;;;;;;5067194;28;20033;-50
2021/12/20 09:36:01;;;;;;;18.35;9.45;;;;;;;;;;5070551;28;20025;-51
2021/12/20 09:38:30;;;;;;;18.13;9.05;;;;;;;;;;5055506;28;20523;-51
2021/12/20 09:43:38;;;;;;;18.60;8.93;;;;;;;;;;5067218;28;20032;-54
2021/12/20 09:46:05;;;;;;;20.70;9.48;;;;;;;;;;5068965;28;20037;-52
2021/12/20 09:48:31;;;;;;;17.15;9.00;;;;;;;;;;5069571;28;20039;-50
2021/12/20 09:50:58;;;;;;;19.95;9.13;;;;;;;;;;5063568;28;20590;-49
2021/12/20 09:53:24;;;;;;;21.90;10.07;;;;;;;;;;5069816;28;20425;-49
2021/12/20 09:55:50;;;;;;;22.00;10.32;;;;;;;;;;5070136;28;20081;-51
2021/12/20 09:58:17;;;;;;;27.60;10.55;;;;;;;;;;5070066;28;20098;-53
2021/12/20 10:00:44;;;;;;;27.25;11.07;;;;;;;;;;5068542;28;20043;-53
2021/12/20 10:03:13;;;;;;;28.02;11.27;;;;;;;;;;5069223;28;20154;-53
2021/12/20 10:05:39;;;;;;;24.60;10.02;;;;;;;;;;5069938;28;20111;-49
2021/12/20 10:08:14;;;;;;;24.90;10.82;;;;;;;;;;5069746;28;20032;-52
2021/12/20 10:10:41;;;;;;;25.00;10.27;;;;;;;;;;5069627;28;20021;-53
2021/12/20 10:13:07;;;;;;;24.27;9.50;;;;;;;;;;5069456;28;20033;-52
2021/12/20 10:15:35;;;;;;;21.70;9.65;;;;;;;;;;5065659;28;20028;-51
2021/12/20 10:18:01;;;;;;;22.02;9.77;;;;;;;;;;5067344;28;20032;-50
2021/12/20 10:20:31;;;;;;;20.95;8.40;;;;;;;;;;5069105;28;20112;-52
2021/12/20 10:23:13;;;;;;;17.95;8.57;;;;;;;;;;5069365;28;20100;-49
2021/12/20 10:25:39;;;;;;;23.02;10.00;;;;;;;;;;5069072;28;20028;-50
2021/12/20 10:28:06;;;;;;;16.88;8.27;;;;;;;;;;5069070;28;20035;-53
2021/12/20 10:30:34;;;;;;;21.13;9.25;;;;;;;;;;5068537;28;20020;-51
2021/12/20 10:33:02;;;;;;;18.48;8.93;;;;;;;;;;5065074;28;20102;-52
2021/12/20 10:35:31;;;;;;;15.55;8.32;;;;;;;;;;5065978;28;20031;-53
2021/12/20 10:38:00;;;;;;;17.42;8.45;;;;;;;;;;5066931;28;20103;-52
2021/12/20 10:40:26;;;;;;;15.43;7.82;;;;;;;;;;5067857;28;20028;-53
2021/12/20 10:42:55;;;;;;;13.15;7.50;;;;;;;;;;5068642;28;20033;-52
2021/12/20 10:45:21;;;;;;;15.55;7.75;;;;;;;;;;5068495;28;20028;-54
2021/12/20 10:47:48;;;;;;;14.13;6.97;;;;;;;;;;5066774;28;20424;-52
2021/12/20 10:50:25;;;;;;;14.98;7.65;;;;;;;;;;5065628;28;20824;-53
2021/12/20 10:52:53;;;;;;;13.18;7.00;;;;;;;;;;5066660;28;20020;-54
2021/12/20 10:55:35;;;;;;;12.18;6.57;;;;;;;;;;5067908;28;20021;-53
2021/12/20 10:58:20;;;;;;;16.38;7.20;;;;;;;;;;5064239;28;20055;-51
2021/12/20 11:01:00;;;;;;;13.70;7.30;;;;;;;;;;5057874;28;20028;-51
2021/12/20 11:03:34;;;;;;;14.38;6.85;;;;;;;;;;5061919;28;20028;-53
2021/12/20 11:11:22;;;;;;;12.95;6.30;;;;;;;;;;5066819;28;20166;-52
2021/12/20 11:13:48;;;;;;;14.85;7.00;;;;;;;;;;5067453;28;20395;-50
2021/12/20 11:16:27;;;;;;;15.27;7.13;;;;;;;;;;5065924;28;20503;-53
2021/12/20 11:19:12;;;;;;;13.90;7.00;;;;;;;;;;5066415;28;20024;-53
2021/12/20 11:21:45;;;;;;;13.60;6.95;;;;;;;;;;5066294;28;20052;-53
2021/12/20 11:24:13;;;;;;;13.32;7.10;;;;;;;;;;5066596;28;20056;-51
2021/12/20 11:26:39;;;;;;;11.40;6.35;;;;;;;;;;5067361;28;20066;-51
2021/12/20 11:29:05;;;;;;;14.18;7.40;;;;;;;;;;5066895;28;20032;-53
2021/12/20 11:31:32;;;;;;;13.57;6.95;;;;;;;;;;5066591;28;20033;-51
2021/12/20 11:34:02;;;;;;;12.85;6.32;;;;;;;;;;5066102;28;20020;-53
2021/12/20 11:36:28;;;;;;;15.35;6.95;;;;;;;;;;5066587;28;20435;-53
2021/12/20 11:38:58;;;;;;;11.60;6.65;;;;;;;;;;5067163;28;20028;-50
2021/12/20 11:41:26;;;;;;;12.63;6.78;;;;;;;;;;5066886;28;20033;-49
2021/12/20 11:43:53;;;;;;;13.82;6.38;;;;;;;;;;5066667;28;20062;-51
2021/12/20 11:46:20;;;;;;;12.07;6.10;;;;;;;;;;5067578;28;20034;-51
2021/12/20 11:48:46;;;;;;;13.50;6.85;;;;;;;;;;5067460;28;20103;-50
2021/12/20 11:51:13;;;;;;;14.10;6.82;;;;;;;;;;5066299;28;20446;-54
2021/12/20 11:53:42;;;;;;;11.60;5.82;;;;;;;;;;5066336;28;20028;-53
2021/12/20 11:56:09;;;;;;;11.95;5.93;;;;;;;;;;5067019;28;20110;-52
2021/12/20 11:58:37;;;;;;;11.52;5.53;;;;;;;;;;5066561;28;20046;-51
2021/12/20 12:01:13;;;;;;;11.93;6.35;;;;;;;;;;5066719;28;20056;-51
2021/12/20 12:03:39;;;;;;;12.98;5.32;;;;;;;;;;5066414;28;20087;-52
2021/12/20 12:06:07;;;;;;;12.05;5.65;;;;;;;;;;5066630;28;20037;-50
2021/12/20 12:08:36;;;;;;;12.20;6.32;;;;;;;;;;5066358;28;20121;-50
2021/12/20 12:11:05;;;;;;;12.35;6.43;;;;;;;;;;5066516;28;20426;-50
2021/12/20 12:14:00;;;;;;;14.43;7.10;;;;;;;;;;5066100;28;20431;-53
2021/12/20 12:16:47;;;;;;;11.07;6.00;;;;;;;;;;5055921;28;20029;-53
2021/12/20 12:19:13;;;;;;;10.98;5.82;;;;;;;;;;5064043;28;20063;-51
2021/12/20 12:21:40;;;;;;;10.27;5.47;;;;;;;;;;5066534;28;20036;-53
2021/12/20 12:24:10;;;;;;;10.70;5.70;;;;;;;;;;5069381;28;20028;-54
2021/12/20 12:26:37;;;;;;;12.00;5.68;;;;;;;;;;5085972;28;20046;-51
2021/12/20 12:29:04;;;;;;;8.88;4.63;;;;;;;;;;5086345;28;20402;-49
2021/12/20 12:31:51;;;;;;;11.00;5.63;;;;;;;;;;5079432;28;20056;-53
2021/12/20 12:34:19;;;;;;;13.40;6.10;;;;;;;;;;5038669;28;20115;-52
2021/12/20 12:36:46;;;;;;;10.00;5.25;;;;;;;;;;5065007;28;20040;-52
2021/12/20 12:39:21;;;;;;;11.00;5.85;;;;;;;;;;5065933;28;20115;-52
2021/12/20 12:41:54;;;;;;;13.05;6.13;;;;;;;;;;5065754;28;20032;-52
2021/12/20 12:44:22;;;;;;;12.98;6.45;;;;;;;;;;5066607;28;20521;-50
2021/12/20 12:47:00;;;;;;;13.32;6.43;;;;;;;;;;5066494;28;20411;-51
2021/12/20 12:49:29;;;;;;;12.75;6.15;;;;;;;;;;5065755;28;20039;-52
2021/12/20 12:51:56;;;;;;;12.68;6.25;;;;;;;;;;5065783;28;20082;-53
2021/12/20 12:54:31;;;;;;;13.40;6.90;;;;;;;;;;5064206;28;20357;-52
2021/12/20 12:57:13;;;;;;;13.55;6.28;;;;;;;;;;5062163;28;20029;-52
2021/12/20 12:59:45;;;;;;;14.30;6.88;;;;;;;;;;5057803;28;20166;-52
2021/12/20 13:02:12;;;;;;;12.25;6.20;;;;;;;;;;5064992;28;20135;-52
2021/12/20 13:04:46;;;;;;;12.55;6.50;;;;;;;;;;5064992;28;20381;-53
2021/12/20 13:07:16;;;;;;;12.95;6.90;;;;;;;;;;5064507;28;20041;-51
2021/12/20 13:09:44;;;;;;;12.75;6.00;;;;;;;;;;5064991;28;20515;-52
2021/12/20 13:12:14;;;;;;;12.45;6.03;;;;;;;;;;5066448;28;20032;-53
2021/12/20 13:17:47;;;;;;;12.90;6.38;;;;;;;;;;5064008;28;20052;-50
2021/12/20 13:21:01;;;;;;;12.57;6.22;;;;;;;;;;5065517;28;20545;-53
2021/12/20 13:23:04;;;;;;;12.45;6.07;;;;;;;;;;5060907;28;20036;-50
2021/12/20 13:25:36;;;;;;;13.85;7.18;;;;;;;;;;5066200;28;20056;-51
2021/12/20 13:28:03;;;;;;;15.35;7.03;;;;;;;;;;5065725;28;20039;-50
2021/12/20 13:30:31;;;;;;;16.13;7.55;;;;;;;;;;5064542;28;20031;-52
2021/12/20 13:32:58;;;;;;;14.93;7.97;;;;;;;;;;5065064;28;20106;-52
2021/12/20 13:35:24;;;;;;;16.80;7.95;;;;;;;;;;5064050;28;20051;-53
2021/12/20 13:37:51;;;;;;;15.68;8.20;;;;;;;;;;5065098;28;20028;-52
2021/12/20 13:40:17;;;;;;;16.55;8.23;;;;;;;;;;5066455;28;20056;-52
2021/12/20 13:42:52;;;;;;;17.75;8.95;;;;;;;;;;5066593;28;20146;-50
2021/12/20 13:45:18;;;;;;;18.15;9.15;;;;;;;;;;5065264;28;20044;-51
2021/12/20 13:47:46;;;;;;;16.10;8.45;;;;;;;;;;5066505;28;20091;-51
2021/12/20 13:50:18;;;;;;;14.60;7.88;;;;;;;;;;5066636;28;20495;-51
2021/12/20 13:52:45;;;;;;;15.55;7.82;;;;;;;;;;5066668;28;20048;-52
2021/12/20 13:55:11;;;;;;;11.57;6.45;;;;;;;;;;5062436;28;21133;-52
2021/12/20 13:57:38;;;;;;;14.98;7.28;;;;;;;;;;5046433;28;20247;-53
2021/12/20 14:00:09;;;;;;;13.80;7.22;;;;;;;;;;5065648;28;20033;-50
2021/12/20 14:02:35;;;;;;;12.63;6.30;;;;;;;;;;5066326;28;20077;-51
2021/12/20 14:05:16;;;;;;;12.27;6.43;;;;;;;;;;5064773;28;20067;-53
2021/12/20 14:07:45;;;;;;;15.48;6.95;;;;;;;;;;5065674;28;20056;-53
2021/12/20 14:10:14;;;;;;;17.48;7.97;;;;;;;;;;5064416;28;20946;-53
2021/12/20 14:13:01;;;;;;;12.80;6.53;;;;;;;;;;5063104;28;20063;-53
2021/12/20 14:15:28;;;;;;;14.13;6.43;;;;;;;;;;5066732;28;20078;-50
2021/12/20 14:17:56;;;;;;;14.82;7.35;;;;;;;;;;5070163;28;20028;-54
2021/12/20 14:20:42;;;;;;;13.15;6.38;;;;;;;;;;5068875;28;20044;-52
2021/12/20 14:23:22;;;;;;;12.57;5.95;;;;;;;;;;5069347;28;20033;-53
2021/12/20 14:26:11;;;;;;;11.15;6.32;;;;;;;;;;5067004;28;20399;-53
2021/12/20 14:28:38;;;;;;;13.85;6.25;;;;;;;;;;5040863;28;20051;-54
2021/12/20 14:31:04;;;;;;;13.02;6.35;;;;;;;;;;5063130;28;20376;-54
2021/12/20 14:33:32;;;;;;;13.23;6.78;;;;;;;;;;5067612;28;20111;-52
2021/12/20 14:36:00;;;;;;;13.77;6.40;;;;;;;;;;5066180;28;20019;-52
2021/12/20 14:38:31;;;;;;;13.07;6.10;;;;;;;;;;5066665;28;20036;-53
2021/12/20 14:40:59;;;;;;;12.15;6.35;;;;;;;;;;5064371;28;20045;-52
2021/12/20 14:43:29;;;;;;;11.63;6.30;;;;;;;;;;5068121;28;20101;-50
2021/12/20 14:46:10;;;;;;;14.48;6.90;;;;;;;;;;5068074;28;20040;-53
2021/12/20 14:48:50;;;;;;;12.45;6.70;;;;;;;;;;5067957;28;20034;-50
2021/12/20 14:51:18;;;;;;;12.88;6.65;;;;;;;;;;5067364;28;20035;-54
2021/12/20 14:53:45;;;;;;;12.18;6.85;;;;;;;;;;5068004;28;20025;-53
2021/12/20 14:56:11;;;;;;;11.65;6.38;;;;;;;;;;5068239;28;20039;-53